createdAt,value
2018-05-10T00:00:52.216Z,19.4
2018-05-10T00:02:01.056Z,19.46
2018-05-10T00:03:09.895Z,19.31
2018-05-10T00:04:18.739Z,19.43
2018-05-10T00:05:27.854Z,19.36
2018-05-10T00:06:36.698Z,19.33
2018-05-10T00:07:45.548Z,19.23
2018-05-10T00:08:54.727Z,19.22
2018-05-10T00:10:03.843Z,19.22
2018-05-10T00:11:12.678Z,19.18
2018-05-10T00:12:21.518Z,19.18
2018-05-10T00:13:30.642Z,19.21
2018-05-10T00:14:39.473Z,19.18
2018-05-10T00:15:48.315Z,19.22
2018-05-10T00:16:57.156Z,19.19
2018-05-10T00:18:06.374Z,19.19
2018-05-10T00:19:15.215Z,19.08
2018-05-10T00:20:24.055Z,19.1
2018-05-10T00:21:32.898Z,19.1
2018-05-10T00:22:41.737Z,19.07
2018-05-10T00:23:50.774Z,19.07
2018-05-10T00:24:59.894Z,19.1
2018-05-10T00:26:08.732Z,18.99
2018-05-10T00:27:17.570Z,19.07
2018-05-10T00:28:26.407Z,18.94
2018-05-10T00:29:35.397Z,18.98
2018-05-10T00:30:44.523Z,18.94
2018-05-10T00:31:53.361Z,19.04
2018-05-10T00:33:02.198Z,18.98
2018-05-10T00:34:11.035Z,18.92
2018-05-10T00:35:20.223Z,18.98
2018-05-10T00:36:29.060Z,18.88
2018-05-10T00:37:37.897Z,18.87
2018-05-10T00:38:47.010Z,18.81
2018-05-10T00:39:55.847Z,18.85
2018-05-10T00:41:04.685Z,18.82
2018-05-10T00:42:13.809Z,18.84
2018-05-10T00:43:22.656Z,18.8
2018-05-10T00:44:31.494Z,18.76
2018-05-10T00:45:40.334Z,18.73
2018-05-10T00:46:49.266Z,18.76
2018-05-10T00:47:58.103Z,18.75
2018-05-10T00:49:06.942Z,18.75
2018-05-10T00:50:16.053Z,18.81
2018-05-10T00:51:24.894Z,18.8
2018-05-10T00:52:33.783Z,18.85
2018-05-10T00:53:42.621Z,18.76
2018-05-10T00:54:51.457Z,18.65
2018-05-10T00:56:00.291Z,18.72
2018-05-10T00:57:09.127Z,18.7
2018-05-10T00:58:18.172Z,18.67
2018-05-10T00:59:27.005Z,18.67
2018-05-10T01:00:36.121Z,18.6
2018-05-10T01:01:44.960Z,18.65
2018-05-10T01:02:53.795Z,18.6
2018-05-10T01:04:03.262Z,18.6
2018-05-10T01:05:12.115Z,18.57
2018-05-10T01:06:20.931Z,18.54
2018-05-10T01:07:30.044Z,18.55
2018-05-10T01:08:39.155Z,18.54
2018-05-10T01:09:48.142Z,18.41
2018-05-10T01:10:56.978Z,18.45
2018-05-10T01:12:05.918Z,18.39
2018-05-10T01:13:14.751Z,18.32
2018-05-10T01:14:23.591Z,18.33
2018-05-10T01:15:32.578Z,18.3
2018-05-10T01:16:41.418Z,18.33
2018-05-10T01:17:50.256Z,18.29
2018-05-10T01:18:59.093Z,18.35
2018-05-10T01:20:08.206Z,18.3
2018-05-10T01:21:17.336Z,18.2
2018-05-10T01:22:26.176Z,18.26
2018-05-10T01:23:35.010Z,18.21
2018-05-10T01:24:43.847Z,18.2
2018-05-10T01:25:52.959Z,18.27
2018-05-10T01:27:01.947Z,18.26
2018-05-10T01:28:10.784Z,18.14
2018-05-10T01:29:19.618Z,18.2
2018-05-10T01:30:28.726Z,18.21
2018-05-10T01:31:37.560Z,18.15
2018-05-10T01:32:46.404Z,18.15
2018-05-10T01:33:55.242Z,18.12
2018-05-10T01:35:04.078Z,18.08
2018-05-10T01:36:13.469Z,18
2018-05-10T01:37:22.306Z,18.02
2018-05-10T01:38:31.494Z,18.02
2018-05-10T01:39:40.334Z,17.95
2018-05-10T01:40:49.170Z,17.95
2018-05-10T01:41:58.007Z,17.92
2018-05-10T01:43:07.123Z,17.92
2018-05-10T01:44:16.010Z,17.9
2018-05-10T01:45:24.847Z,17.86
2018-05-10T01:46:33.683Z,17.79
2018-05-10T01:47:42.520Z,17.82
2018-05-10T01:48:51.629Z,17.74
2018-05-10T01:50:00.745Z,17.64
2018-05-10T01:51:09.584Z,17.77
2018-05-10T01:52:18.426Z,17.63
2018-05-10T01:53:27.535Z,17.68
2018-05-10T01:54:36.373Z,17.7
2018-05-10T01:55:45.913Z,17.64
2018-05-10T01:56:55.026Z,17.66
2018-05-10T01:58:03.866Z,17.66
2018-05-10T01:59:12.703Z,17.75
2018-05-10T02:00:21.541Z,17.75
2018-05-10T02:01:30.577Z,17.64
2018-05-10T02:02:39.691Z,17.72
2018-05-10T02:03:48.532Z,17.64
2018-05-10T02:04:57.369Z,17.63
2018-05-10T02:06:06.211Z,17.58
2018-05-10T02:07:15.421Z,17.55
2018-05-10T02:08:24.256Z,17.58
2018-05-10T02:09:33.097Z,17.52
2018-05-10T02:10:41.938Z,17.46
2018-05-10T02:11:51.048Z,17.44
2018-05-10T02:13:00.035Z,17.36
2018-05-10T02:14:09.419Z,17.41
2018-05-10T02:15:18.538Z,17.37
2018-05-10T02:16:27.374Z,17.38
2018-05-10T02:17:36.218Z,17.36
2018-05-10T02:18:45.200Z,17.33
2018-05-10T02:19:54.039Z,17.3
2018-05-10T02:21:03.152Z,17.36
2018-05-10T02:22:11.992Z,17.33
2018-05-10T02:23:20.833Z,17.37
2018-05-10T02:24:30.016Z,17.34
2018-05-10T02:25:38.852Z,17.31
2018-05-10T02:26:47.688Z,17.33
2018-05-10T02:27:56.798Z,17.34
2018-05-10T02:29:05.909Z,17.31
2018-05-10T02:30:14.898Z,17.31
2018-05-10T02:31:24.011Z,17.3
2018-05-10T02:32:33.408Z,17.23
2018-05-10T02:33:42.249Z,17.26
2018-05-10T02:34:51.081Z,17.31
2018-05-10T02:36:00.068Z,17.26
2018-05-10T02:37:09.466Z,17.26
2018-05-10T02:38:18.580Z,17.19
2018-05-10T02:39:28.262Z,17.16
2018-05-10T02:40:37.649Z,17.22
2018-05-10T02:41:46.587Z,17.19
2018-05-10T02:42:55.705Z,17.04
2018-05-10T02:44:04.543Z,17.15
2018-05-10T02:45:13.928Z,17.11
2018-05-10T02:46:23.048Z,17.06
2018-05-10T02:47:31.989Z,17.04
2018-05-10T02:48:41.371Z,17.11
2018-05-10T02:49:50.766Z,17.03
2018-05-10T02:50:59.883Z,17.01
2018-05-10T02:52:08.724Z,16.97
2018-05-10T02:53:17.571Z,16.93
2018-05-10T02:54:26.415Z,16.88
2018-05-10T02:55:35.615Z,16.89
2018-05-10T02:56:44.455Z,16.89
2018-05-10T02:57:53.574Z,16.94
2018-05-10T02:59:02.934Z,16.93
2018-05-10T03:00:11.772Z,16.89
2018-05-10T03:01:21.169Z,16.88
2018-05-10T03:02:30.557Z,16.86
2018-05-10T03:03:39.941Z,16.81
2018-05-10T03:04:49.209Z,16.81
2018-05-10T03:05:58.319Z,16.85
2018-05-10T03:07:07.709Z,16.75
2018-05-10T03:08:16.820Z,16.79
2018-05-10T03:09:25.944Z,16.79
2018-05-10T03:10:35.032Z,16.75
2018-05-10T03:11:44.440Z,16.71
2018-05-10T03:12:53.549Z,16.73
2018-05-10T03:14:02.389Z,16.71
2018-05-10T03:15:11.503Z,16.67
2018-05-10T03:16:20.764Z,16.7
2018-05-10T03:17:29.875Z,16.71
2018-05-10T03:18:39.260Z,16.73
2018-05-10T03:19:48.096Z,16.73
2018-05-10T03:20:56.937Z,16.68
2018-05-10T03:22:06.051Z,16.71
2018-05-10T03:23:15.156Z,16.63
2018-05-10T03:24:23.992Z,16.56
2018-05-10T03:25:33.106Z,16.61
2018-05-10T03:26:42.218Z,16.61
2018-05-10T03:27:51.435Z,16.61
2018-05-10T03:29:00.269Z,16.5
2018-05-10T03:30:09.670Z,16.42
2018-05-10T03:31:19.366Z,16.49
2018-05-10T03:32:28.202Z,16.5
2018-05-10T03:33:37.039Z,16.49
2018-05-10T03:34:45.878Z,16.5
2018-05-10T03:35:54.717Z,16.48
2018-05-10T03:37:03.554Z,16.52
2018-05-10T03:38:12.396Z,16.48
2018-05-10T03:39:21.334Z,16.48
2018-05-10T03:40:30.259Z,16.48
2018-05-10T03:41:39.382Z,16.39
2018-05-10T03:42:48.220Z,16.38
2018-05-10T03:43:57.053Z,16.45
2018-05-10T03:45:06.042Z,16.5
2018-05-10T03:46:15.157Z,16.39
2018-05-10T03:47:23.995Z,16.49
2018-05-10T03:48:32.831Z,16.39
2018-05-10T03:49:41.666Z,16.34
2018-05-10T03:50:50.603Z,16.38
2018-05-10T03:51:59.987Z,16.42
2018-05-10T03:53:08.824Z,16.49
2018-05-10T03:54:17.660Z,16.41
2018-05-10T03:55:26.774Z,16.49
2018-05-10T03:56:35.932Z,16.43
2018-05-10T03:57:44.770Z,16.46
2018-05-10T03:58:53.880Z,16.45
2018-05-10T04:00:02.780Z,16.46
2018-05-10T04:01:11.898Z,16.45
2018-05-10T04:02:21.158Z,16.45
2018-05-10T04:03:30.003Z,16.5
2018-05-10T04:04:38.839Z,16.46
2018-05-10T04:05:48.222Z,16.41
2018-05-10T04:06:57.337Z,16.38
2018-05-10T04:08:06.446Z,16.39
2018-05-10T04:09:15.282Z,16.38
2018-05-10T04:10:24.394Z,16.39
2018-05-10T04:11:33.232Z,16.43
2018-05-10T04:12:42.339Z,16.42
2018-05-10T04:13:51.174Z,16.42
2018-05-10T04:15:00.010Z,16.41
2018-05-10T04:16:09.124Z,16.43
2018-05-10T04:17:18.234Z,16.42
2018-05-10T04:18:27.070Z,16.42
2018-05-10T04:19:36.285Z,16.43
2018-05-10T04:20:45.394Z,16.48
2018-05-10T04:21:54.230Z,16.5
2018-05-10T04:23:03.065Z,16.46
2018-05-10T04:24:11.901Z,16.45
2018-05-10T04:25:20.939Z,16.49
2018-05-10T04:26:29.775Z,16.48
2018-05-10T04:27:38.611Z,16.45
2018-05-10T04:28:47.451Z,16.5
2018-05-10T04:29:56.287Z,16.46
2018-05-10T04:31:05.278Z,16.48
2018-05-10T04:32:14.391Z,16.5
2018-05-10T04:33:23.227Z,16.46
2018-05-10T04:34:32.066Z,16.53
2018-05-10T04:35:40.948Z,16.45
2018-05-10T04:36:50.427Z,16.48
2018-05-10T04:37:59.617Z,16.46
2018-05-10T04:39:08.728Z,16.53
2018-05-10T04:40:17.563Z,16.52
2018-05-10T04:41:26.403Z,16.48
2018-05-10T04:42:35.340Z,16.49
2018-05-10T04:43:44.174Z,16.39
2018-05-10T04:44:53.314Z,16.48
2018-05-10T04:46:02.153Z,16.5
2018-05-10T04:47:10.997Z,16.45
2018-05-10T04:48:20.286Z,16.43
2018-05-10T04:49:29.149Z,16.46
2018-05-10T04:50:37.960Z,16.5
2018-05-10T04:51:46.799Z,16.48
2018-05-10T04:52:55.637Z,16.5
2018-05-10T04:54:04.471Z,16.48
2018-05-10T04:55:13.307Z,16.5
2018-05-10T04:56:22.418Z,16.5
2018-05-10T04:57:31.259Z,16.56
2018-05-10T04:58:40.090Z,16.52
2018-05-10T04:59:48.928Z,16.48
2018-05-10T05:00:57.768Z,16.63
2018-05-10T05:02:06.600Z,16.64
2018-05-10T05:03:15.716Z,16.58
2018-05-10T05:04:24.542Z,16.58
2018-05-10T05:05:33.482Z,16.6
2018-05-10T05:06:42.594Z,16.6
2018-05-10T05:07:51.430Z,16.63
2018-05-10T05:09:00.329Z,16.57
2018-05-10T05:10:09.511Z,16.56
2018-05-10T05:11:18.450Z,16.68
2018-05-10T05:12:27.285Z,16.7
2018-05-10T05:13:36.123Z,16.68
2018-05-10T05:14:44.959Z,16.67
2018-05-10T05:15:53.800Z,16.73
2018-05-10T05:17:02.796Z,16.73
2018-05-10T05:18:12.195Z,16.73
2018-05-10T05:19:21.033Z,16.75
2018-05-10T05:20:29.868Z,16.7
2018-05-10T05:21:38.706Z,16.76
2018-05-10T05:22:47.691Z,16.73
2018-05-10T05:23:56.525Z,16.73
2018-05-10T05:25:05.364Z,16.73
2018-05-10T05:26:14.750Z,16.75
2018-05-10T05:27:23.593Z,16.71
2018-05-10T05:28:32.430Z,16.85
2018-05-10T05:29:41.265Z,16.81
2018-05-10T05:30:50.649Z,16.83
2018-05-10T05:31:59.776Z,16.88
2018-05-10T05:33:08.889Z,16.85
2018-05-10T05:34:17.929Z,16.88
2018-05-10T05:35:26.823Z,16.98
2018-05-10T05:36:35.603Z,16.94
2018-05-10T05:37:45.892Z,16.96
2018-05-10T05:38:54.732Z,16.96
2018-05-10T05:40:03.838Z,16.91
2018-05-10T05:41:13.550Z,17.04
2018-05-10T05:42:23.115Z,17.07
2018-05-10T05:43:32.045Z,17.01
2018-05-10T05:44:40.801Z,17.03
2018-05-10T05:45:49.689Z,17.04
2018-05-10T05:46:58.530Z,17.06
2018-05-10T05:48:07.361Z,17.16
2018-05-10T05:49:16.197Z,17.18
2018-05-10T05:50:25.034Z,17.14
2018-05-10T05:51:34.098Z,17.18
2018-05-10T05:52:42.934Z,17.28
2018-05-10T05:53:51.774Z,17.26
2018-05-10T05:55:00.630Z,17.26
2018-05-10T05:56:09.833Z,17.28
2018-05-10T05:57:18.769Z,17.3
2018-05-10T05:58:27.882Z,17.34
2018-05-10T05:59:36.720Z,17.3
2018-05-10T06:00:45.839Z,17.34
2018-05-10T06:01:54.673Z,17.34
2018-05-10T06:03:04.115Z,17.4
2018-05-10T06:04:12.951Z,17.38
2018-05-10T06:05:22.072Z,17.48
2018-05-10T06:06:31.337Z,17.44
2018-05-10T06:07:40.148Z,17.48
2018-05-10T06:08:49.408Z,17.55
2018-05-10T06:09:58.246Z,17.52
2018-05-10T06:11:07.092Z,17.59
2018-05-10T06:12:16.205Z,17.58
2018-05-10T06:13:25.042Z,17.51
2018-05-10T06:14:34.081Z,17.62
2018-05-10T06:15:42.992Z,17.7
2018-05-10T06:16:51.757Z,17.72
2018-05-10T06:18:00.871Z,17.72
2018-05-10T06:19:09.984Z,17.75
2018-05-10T06:20:18.979Z,17.75
2018-05-10T06:21:28.099Z,17.81
2018-05-10T06:22:36.937Z,17.72
2018-05-10T06:23:46.050Z,17.75
2018-05-10T06:24:55.005Z,17.82
2018-05-10T06:26:04.596Z,17.87
2018-05-10T06:27:13.432Z,17.95
2018-05-10T06:28:22.270Z,17.93
2018-05-10T06:29:31.106Z,17.95
2018-05-10T06:30:39.946Z,18
2018-05-10T06:31:48.781Z,18.02
2018-05-10T06:32:57.618Z,18.07
2018-05-10T06:34:06.828Z,18.03
2018-05-10T06:35:15.858Z,18.08
2018-05-10T06:36:24.698Z,18.15
2018-05-10T06:37:33.587Z,18.14
2018-05-10T06:38:42.423Z,18.18
2018-05-10T06:39:51.534Z,18.15
2018-05-10T06:41:00.657Z,18.17
2018-05-10T06:42:09.603Z,18.21
2018-05-10T06:43:18.457Z,18.18
2018-05-10T06:44:27.571Z,18.32
2018-05-10T06:45:36.701Z,18.3
2018-05-10T06:46:46.182Z,18.29
2018-05-10T06:47:55.678Z,18.41
2018-05-10T06:49:04.566Z,18.42
2018-05-10T06:50:13.685Z,18.5
2018-05-10T06:51:22.525Z,18.47
2018-05-10T06:52:31.363Z,18.58
2018-05-10T06:53:40.202Z,18.55
2018-05-10T06:54:49.162Z,18.52
2018-05-10T06:55:58.004Z,18.75
2018-05-10T06:57:07.121Z,18.8
2018-05-10T06:58:16.259Z,18.72
2018-05-10T06:59:25.117Z,18.84
2018-05-10T07:00:34.282Z,18.85
2018-05-10T07:01:43.352Z,18.92
2018-05-10T07:02:52.256Z,19.06
2018-05-10T07:04:01.659Z,19.04
2018-05-10T07:05:10.600Z,19.19
2018-05-10T07:06:19.554Z,19.25
2018-05-10T07:07:28.406Z,19.26
2018-05-10T07:08:37.610Z,19.29
2018-05-10T07:09:46.611Z,19.31
2018-05-10T07:10:55.748Z,19.36
2018-05-10T07:12:04.748Z,19.4
2018-05-10T07:13:14.869Z,19.43
2018-05-10T07:14:23.760Z,19.44
2018-05-10T07:15:32.605Z,19.46
2018-05-10T07:16:41.442Z,19.56
2018-05-10T07:17:50.978Z,19.55
2018-05-10T07:18:59.815Z,19.63
2018-05-10T07:20:08.655Z,19.61
2018-05-10T07:21:17.493Z,19.69
2018-05-10T07:22:26.348Z,19.73
2018-05-10T07:23:35.461Z,19.68
2018-05-10T07:24:44.298Z,19.74
2018-05-10T07:25:53.163Z,19.78
2018-05-10T07:27:02.067Z,19.78
2018-05-10T07:28:10.903Z,19.87
2018-05-10T07:29:21.403Z,19.87
2018-05-10T07:30:30.304Z,19.94
2018-05-10T07:31:39.420Z,19.87
2018-05-10T07:32:48.260Z,19.92
2018-05-10T07:33:57.097Z,19.95
2018-05-10T07:35:06.044Z,20.01
2018-05-10T07:36:14.884Z,19.94
2018-05-10T07:37:23.725Z,20.11
2018-05-10T07:38:32.843Z,20.05
2018-05-10T07:39:41.954Z,20.06
2018-05-10T07:40:51.227Z,20.11
2018-05-10T07:42:00.109Z,20.13
2018-05-10T07:43:09.283Z,20.14
2018-05-10T07:44:18.404Z,20.14
2018-05-10T07:45:27.245Z,20.17
2018-05-10T07:46:36.436Z,20.16
2018-05-10T07:47:45.558Z,20.21
2018-05-10T07:48:54.676Z,20.18
2018-05-10T07:50:03.512Z,20.32
2018-05-10T07:51:12.629Z,20.33
2018-05-10T07:52:21.468Z,20.38
2018-05-10T07:53:30.314Z,20.31
2018-05-10T07:54:39.445Z,20.38
2018-05-10T07:55:48.635Z,20.5
2018-05-10T07:56:57.484Z,20.51
2018-05-10T07:58:06.489Z,20.51
2018-05-10T07:59:15.339Z,20.58
2018-05-10T08:00:24.477Z,20.61
2018-05-10T08:01:33.347Z,20.7
2018-05-10T08:02:42.201Z,20.76
2018-05-10T08:03:51.322Z,20.84
2018-05-10T08:05:00.171Z,20.79
2018-05-10T08:06:09.016Z,20.91
2018-05-10T08:07:17.855Z,20.89
2018-05-10T08:08:26.699Z,21.01
2018-05-10T08:09:36.161Z,21.04
2018-05-10T08:10:45.284Z,20.97
2018-05-10T08:11:54.131Z,21.09
2018-05-10T08:13:02.965Z,21.14
2018-05-10T08:14:11.820Z,21.1
2018-05-10T08:15:20.669Z,21.29
2018-05-10T08:16:29.525Z,21.31
2018-05-10T08:17:38.372Z,21.28
2018-05-10T08:18:47.502Z,21.35
2018-05-10T08:19:56.358Z,21.24
2018-05-10T08:21:05.361Z,21.24
2018-05-10T08:22:14.217Z,21.27
2018-05-10T08:23:23.077Z,21.19
2018-05-10T08:24:31.932Z,21.25
2018-05-10T08:25:40.794Z,21.28
2018-05-10T08:26:50.273Z,21.28
2018-05-10T08:27:59.394Z,21.31
2018-05-10T08:29:08.241Z,21.31
2018-05-10T08:30:17.181Z,21.34
2018-05-10T08:31:26.331Z,21.32
2018-05-10T08:33:05.222Z,21.4
2018-05-10T08:34:14.349Z,21.4
2018-05-10T08:35:23.197Z,21.44
2018-05-10T08:36:32.131Z,21.5
2018-05-10T08:37:41.057Z,21.4
2018-05-10T08:38:49.911Z,21.4
2018-05-10T08:39:58.764Z,21.43
2018-05-10T08:41:07.634Z,21.53
2018-05-10T08:42:16.754Z,21.46
2018-05-10T08:43:25.694Z,21.62
2018-05-10T08:44:34.650Z,21.62
2018-05-10T08:45:43.504Z,21.65
2018-05-10T08:46:52.625Z,21.62
2018-05-10T08:48:01.479Z,21.52
2018-05-10T08:49:11.132Z,21.59
2018-05-10T08:50:20.265Z,21.62
2018-05-10T08:51:29.124Z,21.62
2018-05-10T08:52:38.768Z,21.58
2018-05-10T08:53:47.605Z,21.54
2018-05-10T08:54:57.096Z,21.54
2018-05-10T08:56:05.936Z,21.65
2018-05-10T08:57:14.776Z,21.59
2018-05-10T08:58:23.615Z,21.67
2018-05-10T08:59:32.459Z,21.62
2018-05-10T09:00:41.299Z,21.75
2018-05-10T09:01:50.152Z,21.79
2018-05-10T09:02:59.269Z,21.77
2018-05-10T09:04:08.208Z,21.74
2018-05-10T09:05:17.059Z,21.71
2018-05-10T09:06:25.907Z,21.65
2018-05-10T09:07:35.026Z,21.79
2018-05-10T09:08:43.867Z,21.77
2018-05-10T09:09:53.055Z,21.82
2018-05-10T09:11:02.447Z,21.79
2018-05-10T09:12:11.287Z,21.79
2018-05-10T09:13:20.402Z,21.74
2018-05-10T09:14:29.243Z,21.74
2018-05-10T09:15:38.081Z,21.59
2018-05-10T09:16:47.201Z,21.61
2018-05-10T09:17:56.395Z,21.62
2018-05-10T09:19:05.509Z,21.59
2018-05-10T09:20:14.725Z,21.59
2018-05-10T09:21:23.470Z,21.46
2018-05-10T09:22:32.308Z,21.61
2018-05-10T09:23:41.522Z,21.47
2018-05-10T09:24:50.371Z,21.59
2018-05-10T09:25:59.953Z,21.61
2018-05-10T09:27:08.740Z,21.52
2018-05-10T09:28:17.579Z,21.44
2018-05-10T09:29:26.468Z,21.4
2018-05-10T09:30:35.307Z,21.43
2018-05-10T09:31:44.147Z,21.46
2018-05-10T09:32:53.266Z,21.32
2018-05-10T09:34:02.109Z,21.24
2018-05-10T09:35:11.377Z,21.12
2018-05-10T09:36:20.217Z,21.17
2018-05-10T09:37:29.054Z,21.28
2018-05-10T09:38:37.893Z,21.29
2018-05-10T09:39:46.733Z,21.24
2018-05-10T09:40:55.627Z,21.21
2018-05-10T09:42:04.740Z,21.21
2018-05-10T09:43:13.582Z,21.34
2018-05-10T09:44:22.696Z,21.31
2018-05-10T09:45:31.811Z,21.28
2018-05-10T09:46:40.702Z,21.22
2018-05-10T09:47:49.541Z,21.03
2018-05-10T09:48:58.655Z,20.8
2018-05-10T09:50:07.493Z,20.84
2018-05-10T09:51:16.614Z,20.84
2018-05-10T09:52:25.552Z,20.8
2018-05-10T09:53:34.390Z,20.92
2018-05-10T09:54:43.504Z,20.89
2018-05-10T09:55:52.620Z,21.01
2018-05-10T09:57:01.461Z,20.92
2018-05-10T09:58:10.653Z,20.74
2018-05-10T09:59:19.494Z,20.94
2018-05-10T10:00:28.947Z,20.97
2018-05-10T10:01:37.787Z,21.03
2018-05-10T10:02:46.902Z,20.97
2018-05-10T10:03:55.891Z,20.97
2018-05-10T10:05:04.734Z,20.95
2018-05-10T10:06:13.670Z,20.89
2018-05-10T10:07:22.790Z,20.97
2018-05-10T10:08:31.635Z,21.03
2018-05-10T10:09:40.629Z,21.03
2018-05-10T10:10:49.469Z,20.95
2018-05-10T10:11:58.304Z,20.95
2018-05-10T10:13:07.417Z,21.07
2018-05-10T10:14:16.259Z,21.04
2018-05-10T10:15:25.155Z,20.94
2018-05-10T10:16:33.996Z,21.01
2018-05-10T10:17:42.927Z,21.04
2018-05-10T10:18:51.677Z,21.13
2018-05-10T10:20:00.790Z,21.06
2018-05-10T10:21:09.906Z,20.94
2018-05-10T10:22:19.027Z,20.92
2018-05-10T10:23:28.149Z,20.95
2018-05-10T10:24:36.988Z,20.95
2018-05-10T10:25:46.102Z,20.98
2018-05-10T10:26:55.192Z,21.04
2018-05-10T10:28:04.029Z,20.94
2018-05-10T10:29:12.870Z,21.01
2018-05-10T10:30:21.710Z,21.12
2018-05-10T10:31:30.551Z,21.13
2018-05-10T10:32:39.394Z,21.31
2018-05-10T10:33:48.522Z,21.24
2018-05-10T10:34:57.362Z,21.19
2018-05-10T10:36:06.203Z,21.12
2018-05-10T10:37:15.329Z,21.07
2018-05-10T10:38:24.272Z,21.16
2018-05-10T10:39:33.111Z,21.14
2018-05-10T10:40:41.952Z,21.21
2018-05-10T10:41:51.069Z,21.24
2018-05-10T10:42:59.915Z,21.29
2018-05-10T10:44:09.229Z,21.44
2018-05-10T10:45:18.620Z,21.42
2018-05-10T10:46:27.771Z,21.43
2018-05-10T10:47:36.610Z,21.38
2018-05-10T10:48:45.450Z,21.46
2018-05-10T10:49:54.357Z,21.47
2018-05-10T10:51:03.474Z,21.5
2018-05-10T10:52:12.317Z,21.59
2018-05-10T10:53:21.442Z,21.56
2018-05-10T10:54:30.283Z,21.65
2018-05-10T10:55:39.276Z,21.59
2018-05-10T10:56:48.111Z,21.59
2018-05-10T10:57:56.953Z,21.64
2018-05-10T10:59:06.072Z,21.69
2018-05-10T11:00:14.917Z,21.77
2018-05-10T11:01:23.751Z,21.77
2018-05-10T11:02:32.593Z,21.68
2018-05-10T11:03:41.434Z,21.62
2018-05-10T11:04:50.281Z,21.59
2018-05-10T11:05:59.114Z,21.54
2018-05-10T11:07:08.289Z,21.56
2018-05-10T11:08:17.129Z,21.67
2018-05-10T11:09:25.969Z,21.61
2018-05-10T11:10:34.809Z,21.64
2018-05-10T11:11:43.654Z,21.68
2018-05-10T11:12:52.495Z,21.56
2018-05-10T11:14:01.331Z,21.52
2018-05-10T11:15:10.616Z,21.56
2018-05-10T11:16:19.459Z,21.58
2018-05-10T11:17:28.301Z,21.53
2018-05-10T11:18:37.469Z,21.61
2018-05-10T11:19:46.314Z,21.72
2018-05-10T11:20:55.464Z,21.69
2018-05-10T11:22:04.929Z,21.56
2018-05-10T11:23:14.047Z,21.64
2018-05-10T11:24:22.887Z,21.62
2018-05-10T11:25:31.728Z,21.71
2018-05-10T11:26:41.121Z,21.86
2018-05-10T11:27:49.962Z,21.74
2018-05-10T11:28:58.809Z,21.86
2018-05-10T11:30:07.699Z,21.83
2018-05-10T11:31:16.540Z,21.8
2018-05-10T11:32:25.385Z,21.8
2018-05-10T11:33:34.221Z,21.8
2018-05-10T11:34:43.344Z,21.65
2018-05-10T11:35:52.608Z,21.72
2018-05-10T11:37:01.729Z,21.86
2018-05-10T11:38:10.567Z,21.82
2018-05-10T11:39:19.409Z,21.88
2018-05-10T11:40:28.250Z,21.99
2018-05-10T11:41:37.189Z,21.99
2018-05-10T11:42:46.187Z,22
2018-05-10T11:43:55.027Z,22.1
2018-05-10T11:45:03.874Z,22.09
2018-05-10T11:46:12.710Z,22.02
2018-05-10T11:47:21.708Z,21.98
2018-05-10T11:48:30.550Z,22.06
2018-05-10T11:49:39.390Z,22.17
2018-05-10T11:50:48.230Z,22.21
2018-05-10T11:51:57.348Z,22.09
2018-05-10T11:53:06.389Z,21.98
2018-05-10T11:54:15.233Z,21.91
2018-05-10T11:55:24.075Z,21.99
2018-05-10T11:56:32.917Z,22
2018-05-10T11:57:42.034Z,22.02
2018-05-10T11:58:51.531Z,22.03
2018-05-10T12:00:00.922Z,21.94
2018-05-10T12:01:09.765Z,21.84
2018-05-10T12:02:18.605Z,21.79
2018-05-10T12:03:27.450Z,21.68
2018-05-10T12:04:36.646Z,21.65
2018-05-10T12:05:45.761Z,21.69
2018-05-10T12:06:54.600Z,21.82
2018-05-10T12:08:03.442Z,21.82
2018-05-10T12:09:12.834Z,21.65
2018-05-10T12:10:22.309Z,21.64
2018-05-10T12:11:31.153Z,21.75
2018-05-10T12:12:39.994Z,21.59
2018-05-10T12:13:48.837Z,21.65
2018-05-10T12:14:57.680Z,21.59
2018-05-10T12:16:06.620Z,21.53
2018-05-10T12:17:15.732Z,21.4
2018-05-10T12:18:24.570Z,21.25
2018-05-10T12:19:33.689Z,21.16
2018-05-10T12:20:42.529Z,21.28
2018-05-10T12:21:51.520Z,21.06
2018-05-10T12:23:00.360Z,21.03
2018-05-10T12:24:09.205Z,20.95
2018-05-10T12:25:18.327Z,21.01
2018-05-10T12:26:27.440Z,20.92
2018-05-10T12:27:36.982Z,20.89
2018-05-10T12:28:45.822Z,20.87
2018-05-10T12:29:54.697Z,20.97
2018-05-10T12:31:03.508Z,20.8
2018-05-10T12:32:12.340Z,20.64
2018-05-10T12:33:21.857Z,20.35
2018-05-10T12:34:30.698Z,20.24
2018-05-10T12:35:39.536Z,20.17
2018-05-10T12:36:48.657Z,19.86
2018-05-10T12:37:57.496Z,19.88
2018-05-10T12:39:06.335Z,19.73
2018-05-10T12:40:15.179Z,19.71
2018-05-10T12:41:24.292Z,19.77
2018-05-10T12:42:33.189Z,19.44
2018-05-10T12:43:42.521Z,19.31
2018-05-10T12:44:51.460Z,19.19
2018-05-10T12:46:00.300Z,18.94
2018-05-10T12:47:09.139Z,18.99
2018-05-10T12:48:17.980Z,19.21
2018-05-10T12:49:26.824Z,19.08
2018-05-10T12:50:36.014Z,19.06
2018-05-10T12:51:45.123Z,18.8
2018-05-10T12:52:54.237Z,18.73
2018-05-10T12:54:03.074Z,18.62
2018-05-10T12:55:11.912Z,18.54
2018-05-10T12:56:20.912Z,18.65
2018-05-10T12:57:29.695Z,18.58
2018-05-10T12:58:38.534Z,18.55
2018-05-10T12:59:47.373Z,18.62
2018-05-10T13:00:56.215Z,18.39
2018-05-10T13:02:05.151Z,18.41
2018-05-10T13:03:13.990Z,18.3
2018-05-10T13:04:22.827Z,18.32
2018-05-10T13:05:31.940Z,18.35
2018-05-10T13:06:40.782Z,18.26
2018-05-10T13:07:50.310Z,18.27
2018-05-10T13:08:59.149Z,18.14
2018-05-10T13:10:07.988Z,18.21
2018-05-10T13:11:17.115Z,18.14
2018-05-10T13:12:25.955Z,18.21
2018-05-10T13:13:35.386Z,18.11
2018-05-10T13:14:44.502Z,18.26
2018-05-10T13:15:53.345Z,18.14
2018-05-10T13:17:02.736Z,18.2
2018-05-10T13:18:11.858Z,17.93
2018-05-10T13:19:20.722Z,17.87
2018-05-10T13:20:29.841Z,17.75
2018-05-10T13:21:38.781Z,17.95
2018-05-10T13:22:47.520Z,17.9
2018-05-10T13:23:56.359Z,18.11
2018-05-10T13:25:05.198Z,17.99
2018-05-10T13:26:14.335Z,17.89
2018-05-10T13:27:23.631Z,17.71
2018-05-10T13:28:32.837Z,17.56
2018-05-10T13:29:41.676Z,17.74
2018-05-10T13:30:50.613Z,17.75
2018-05-10T13:31:59.452Z,17.75
2018-05-10T13:33:08.294Z,17.7
2018-05-10T13:34:17.128Z,17.58
2018-05-10T13:35:26.242Z,17.41
2018-05-10T13:36:35.129Z,17.3
2018-05-10T13:37:44.249Z,17.26
2018-05-10T13:38:53.138Z,17.04
2018-05-10T13:40:02.245Z,16.98
2018-05-10T13:41:11.362Z,16.89
2018-05-10T13:42:20.198Z,16.75
2018-05-10T13:43:29.037Z,16.73
2018-05-10T13:44:37.873Z,16.68
2018-05-10T13:45:46.712Z,16.94
2018-05-10T13:46:55.548Z,16.91
2018-05-10T13:48:04.485Z,17.04
2018-05-10T13:49:13.321Z,16.98
2018-05-10T13:50:22.567Z,16.93
2018-05-10T13:51:31.959Z,16.89
2018-05-10T13:52:41.078Z,16.76
2018-05-10T13:53:49.966Z,16.89
2018-05-10T13:54:58.798Z,16.76
2018-05-10T13:56:07.634Z,17.15
2018-05-10T13:57:16.491Z,17.15
2018-05-10T13:58:25.315Z,17.04
2018-05-10T13:59:34.301Z,17.14
2018-05-10T14:00:43.138Z,17.21
2018-05-10T14:01:51.975Z,17.28
2018-05-10T14:03:00.810Z,17.18
2018-05-10T14:04:09.646Z,17.15
2018-05-10T14:05:18.911Z,17.12
2018-05-10T14:06:27.749Z,17.44
2018-05-10T14:07:36.587Z,17.41
2018-05-10T14:08:45.425Z,17.31
2018-05-10T14:09:54.262Z,17.43
2018-05-10T14:11:03.476Z,17.23
2018-05-10T14:12:12.270Z,17.23
2018-05-10T14:13:21.109Z,17.41
2018-05-10T14:14:29.947Z,17.37
2018-05-10T14:15:39.063Z,17.4
2018-05-10T14:16:48.049Z,17.33
2018-05-10T14:17:56.892Z,17.49
2018-05-10T14:19:05.729Z,17.48
2018-05-10T14:20:14.570Z,17.3
2018-05-10T14:21:23.411Z,17.14
2018-05-10T14:22:32.402Z,17
2018-05-10T14:23:41.245Z,17.21
2018-05-10T14:24:50.361Z,17.28
2018-05-10T14:25:59.197Z,17.18
2018-05-10T14:27:08.038Z,17.11
2018-05-10T14:28:17.028Z,17.11
2018-05-10T14:29:26.420Z,16.93
2018-05-10T14:30:35.536Z,17.12
2018-05-10T14:31:44.373Z,17.14
2018-05-10T14:32:53.229Z,17.07
2018-05-10T14:34:02.350Z,16.96
2018-05-10T14:35:11.189Z,16.75
2018-05-10T14:36:20.026Z,16.73
2018-05-10T14:37:28.871Z,16.78
2018-05-10T14:38:37.707Z,16.91
2018-05-10T14:39:46.980Z,16.85
2018-05-10T14:40:56.099Z,16.75
2018-05-10T14:42:05.214Z,16.88
2018-05-10T14:43:14.051Z,16.97
2018-05-10T14:44:23.163Z,16.91
2018-05-10T14:45:32.049Z,16.91
2018-05-10T14:46:40.972Z,16.82
2018-05-10T14:47:50.079Z,16.94
2018-05-10T14:48:58.916Z,17.08
2018-05-10T14:50:07.756Z,17.06
2018-05-10T14:51:17.231Z,17.06
2018-05-10T14:52:26.063Z,17.06